createdAt,value
2017-03-22T04:00:48.688Z,1014.36
2017-03-22T04:01:14.253Z,1014.34
2017-03-22T04:01:39.819Z,1014.35
2017-03-22T04:02:05.493Z,1014.36
2017-03-22T04:02:31.044Z,1014.39
2017-03-22T04:02:56.667Z,1014.35
2017-03-22T04:03:22.757Z,1014.35
2017-03-22T04:03:48.344Z,1014.37
2017-03-22T04:04:13.922Z,1014.4
2017-03-22T04:04:39.485Z,1014.43
2017-03-22T04:05:05.056Z,1014.39
2017-03-22T04:05:30.742Z,1014.4
2017-03-22T04:05:56.387Z,1014.42
2017-03-22T04:06:21.961Z,1014.45
2017-03-22T04:06:47.542Z,1014.46
2017-03-22T04:07:13.101Z,1014.44
2017-03-22T04:07:38.685Z,1014.48
2017-03-22T04:08:04.238Z,1014.48
2017-03-22T04:08:30.811Z,1014.46
2017-03-22T04:08:57.264Z,1014.48
2017-03-22T04:09:23.069Z,1014.47
2017-03-22T04:09:48.711Z,1014.49
2017-03-22T04:10:15.693Z,1014.46
2017-03-22T04:10:40.622Z,1014.49
2017-03-22T04:11:06.195Z,1014.49
2017-03-22T04:11:31.906Z,1014.49
2017-03-22T04:11:57.472Z,1014.47
2017-03-22T04:12:23.007Z,1014.48
2017-03-22T04:12:48.668Z,1014.46
2017-03-22T04:13:14.225Z,1014.5
2017-03-22T04:13:39.856Z,1014.48
2017-03-22T04:14:05.517Z,1014.48
2017-03-22T04:14:31.067Z,1014.48
2017-03-22T04:14:56.668Z,1014.53
2017-03-22T04:15:22.208Z,1014.47
2017-03-22T04:15:48.776Z,1014.48
2017-03-22T04:16:15.193Z,1014.49
2017-03-22T04:16:40.003Z,1014.48
2017-03-22T04:17:05.615Z,1014.49
2017-03-22T04:17:31.172Z,1014.5
2017-03-22T04:17:56.885Z,1014.52
2017-03-22T04:18:22.970Z,1014.48
2017-03-22T04:18:48.599Z,1014.47
2017-03-22T04:19:47.046Z,1014.48
2017-03-22T04:20:12.671Z,1014.46
2017-03-22T04:20:38.229Z,1014.51
2017-03-22T04:21:03.859Z,1014.52
2017-03-22T04:21:29.428Z,1014.47
2017-03-22T04:21:55.063Z,1014.53
2017-03-22T04:22:20.650Z,1014.5
2017-03-22T04:22:46.211Z,1014.48
2017-03-22T04:23:11.811Z,1014.51
2017-03-22T04:23:37.373Z,1014.49
2017-03-22T04:24:03.093Z,1014.56
2017-03-22T04:24:28.684Z,1014.48
2017-03-22T04:24:54.922Z,1014.52
2017-03-22T04:25:20.938Z,1014.49
2017-03-22T04:25:46.505Z,1014.49
2017-03-22T04:26:12.375Z,1014.51
2017-03-22T04:26:38.045Z,1014.54
2017-03-22T04:27:57.070Z,1014.52
2017-03-22T04:28:22.735Z,1014.49
2017-03-22T04:28:58.183Z,1014.51
2017-03-22T04:30:55.618Z,1014.49
2017-03-22T04:31:21.225Z,1014.51
2017-03-22T04:31:47.559Z,1014.45
2017-03-22T04:32:12.460Z,1014.49
2017-03-22T04:32:38.369Z,1014.49
2017-03-22T04:33:04.055Z,1014.49
2017-03-22T04:34:02.850Z,1014.49
2017-03-22T04:35:00.954Z,1014.45
2017-03-22T04:35:26.508Z,1014.55
2017-03-22T04:35:52.083Z,1014.53
2017-03-22T04:36:17.631Z,1014.54
2017-03-22T04:36:43.194Z,1014.53
2017-03-22T04:37:08.739Z,1014.56
2017-03-22T04:37:34.334Z,1014.54
2017-03-22T04:37:59.999Z,1014.56
2017-03-22T04:38:25.549Z,1014.56
2017-03-22T04:38:51.137Z,1014.59
2017-03-22T04:39:16.695Z,1014.58
2017-03-22T04:39:42.376Z,1014.63
2017-03-22T04:40:07.983Z,1014.61
2017-03-22T04:40:33.748Z,1014.62
2017-03-22T04:40:59.389Z,1014.64
2017-03-22T04:41:25.029Z,1014.62
2017-03-22T04:41:50.602Z,1014.63
2017-03-22T04:42:16.260Z,1014.6
2017-03-22T04:42:41.916Z,1014.7
2017-03-22T04:43:07.530Z,1014.65
2017-03-22T04:43:33.208Z,1014.65
2017-03-22T04:43:58.766Z,1014.62
2017-03-22T04:44:24.442Z,1014.69
2017-03-22T04:44:50.090Z,1014.71
2017-03-22T04:45:15.671Z,1014.68
2017-03-22T04:45:41.314Z,1014.68
2017-03-22T04:46:07.141Z,1014.67
2017-03-22T04:46:32.676Z,1014.72
2017-03-22T04:46:58.284Z,1014.68
2017-03-22T04:47:23.829Z,1014.7
2017-03-22T04:47:49.489Z,1014.68
2017-03-22T04:48:15.065Z,1014.7
2017-03-22T04:49:23.670Z,1014.7
2017-03-22T04:49:49.451Z,1014.71
2017-03-22T04:50:15.003Z,1014.68
2017-03-22T04:50:40.645Z,1014.71
2017-03-22T04:51:06.324Z,1014.72
2017-03-22T04:51:31.881Z,1014.71
2017-03-22T04:51:57.551Z,1014.7
2017-03-22T04:52:23.202Z,1014.73
2017-03-22T04:52:48.908Z,1014.73
2017-03-22T04:53:14.454Z,1014.74
2017-03-22T04:53:40.046Z,1014.72
2017-03-22T04:54:05.727Z,1014.74
2017-03-22T04:54:31.411Z,1014.76
2017-03-22T04:54:56.994Z,1014.75
2017-03-22T04:55:22.638Z,1014.72
2017-03-22T04:55:48.282Z,1014.76
2017-03-22T04:56:13.980Z,1014.78
2017-03-22T04:56:39.620Z,1014.78
2017-03-22T04:57:05.176Z,1014.76
2017-03-22T04:57:30.741Z,1014.81
2017-03-22T04:57:56.299Z,1014.8
2017-03-22T04:58:21.850Z,1014.87
2017-03-22T04:58:47.573Z,1014.84
2017-03-22T04:59:13.107Z,1014.84
2017-03-22T04:59:38.771Z,1014.88
2017-03-22T05:00:04.374Z,1014.83
2017-03-22T05:00:29.932Z,1014.89
2017-03-22T05:00:55.514Z,1014.94
2017-03-22T05:01:21.064Z,1014.93
2017-03-22T05:01:46.739Z,1014.98
2017-03-22T05:02:12.298Z,1014.98
2017-03-22T05:02:37.904Z,1014.99
2017-03-22T05:03:03.625Z,1015.01
2017-03-22T05:03:29.167Z,1015.03
2017-03-22T05:03:54.789Z,1015.02
2017-03-22T05:04:20.410Z,1015.02
2017-03-22T05:04:45.990Z,1015.03
2017-03-22T05:05:11.620Z,1015.04
2017-03-22T05:05:37.174Z,1015.04
2017-03-22T05:06:02.785Z,1015.03
2017-03-22T05:06:28.410Z,1015.03
2017-03-22T05:06:53.972Z,1015.06
2017-03-22T05:07:19.561Z,1015.04
2017-03-22T05:07:45.106Z,1015.07
2017-03-22T05:08:10.689Z,1015.06
2017-03-22T05:08:36.238Z,1015.07
2017-03-22T05:09:01.864Z,1015.09
2017-03-22T05:09:27.478Z,1015.08
2017-03-22T05:09:53.048Z,1015.1
2017-03-22T05:10:18.665Z,1015.08
2017-03-22T05:10:44.241Z,1015.1
2017-03-22T05:11:09.901Z,1015.11
2017-03-22T05:11:35.582Z,1015.11
2017-03-22T05:12:01.146Z,1015.11
2017-03-22T05:12:26.835Z,1015.15
2017-03-22T05:12:53.029Z,1015.15
2017-03-22T05:13:18.617Z,1015.16
2017-03-22T05:13:44.201Z,1015.16
2017-03-22T05:14:09.831Z,1015.18
2017-03-22T05:14:35.615Z,1015.15
2017-03-22T05:15:01.189Z,1015.16
2017-03-22T05:15:26.758Z,1015.15
2017-03-22T05:15:52.318Z,1015.14
2017-03-22T05:16:17.999Z,1015.19
2017-03-22T05:16:43.630Z,1015.15
2017-03-22T05:17:15.923Z,1015.18
2017-03-22T05:17:41.602Z,1015.16
2017-03-22T05:18:07.122Z,1015.16
2017-03-22T05:18:32.925Z,1015.18
2017-03-22T05:18:58.499Z,1015.14
2017-03-22T05:19:24.138Z,1015.15
2017-03-22T05:19:49.799Z,1015.18
2017-03-22T05:20:15.361Z,1015.16
2017-03-22T05:20:41.042Z,1015.16
2017-03-22T05:21:06.719Z,1015.19
2017-03-22T05:21:32.829Z,1015.17
2017-03-22T05:21:57.991Z,1015.16
2017-03-22T05:22:23.694Z,1015.14
2017-03-22T05:22:49.340Z,1015.12
2017-03-22T05:24:12.453Z,1015.14
2017-03-22T05:24:38.078Z,1015.16
2017-03-22T05:25:03.634Z,1015.15
2017-03-22T05:25:29.262Z,1015.16
2017-03-22T05:25:56.407Z,1015.15
2017-03-22T05:26:21.257Z,1015.15
2017-03-22T05:26:46.827Z,1015.14
2017-03-22T05:27:12.406Z,1015.13
2017-03-22T05:27:38.022Z,1015.13
2017-03-22T05:28:03.959Z,1015.15
2017-03-22T05:28:29.511Z,1015.16
2017-03-22T05:28:56.591Z,1015.12
2017-03-22T05:29:22.203Z,1015.18
2017-03-22T05:29:47.881Z,1015.15
2017-03-22T05:30:13.447Z,1015.14
2017-03-22T05:30:39.140Z,1015.16
2017-03-22T05:31:04.847Z,1015.16
2017-03-22T05:31:30.440Z,1015.14
2017-03-22T05:31:56.046Z,1015.13
2017-03-22T05:32:22.208Z,1015.14
2017-03-22T05:32:47.904Z,1015.16
2017-03-22T05:33:14.080Z,1015.17
2017-03-22T05:33:39.632Z,1015.16
2017-03-22T05:34:05.321Z,1015.14
2017-03-22T05:34:31.402Z,1015.21
2017-03-22T05:34:56.976Z,1015.16
2017-03-22T05:35:23.162Z,1015.2
2017-03-22T05:35:48.740Z,1015.19
2017-03-22T05:37:12.637Z,1015.2
2017-03-22T05:37:38.257Z,1015.2
2017-03-22T05:38:03.855Z,1015.22
2017-03-22T05:38:29.476Z,1015.24
2017-03-22T05:38:55.131Z,1015.21
2017-03-22T05:39:20.706Z,1015.21
2017-03-22T05:39:46.334Z,1015.23
2017-03-22T05:40:12.360Z,1015.24
2017-03-22T05:40:38.054Z,1015.24
2017-03-22T05:41:04.164Z,1015.26
2017-03-22T05:41:29.734Z,1015.28
2017-03-22T05:41:55.301Z,1015.29
2017-03-22T05:42:21.572Z,1015.28
2017-03-22T05:42:47.127Z,1015.28
2017-03-22T05:43:13.321Z,1015.27
2017-03-22T05:43:38.900Z,1015.27
2017-03-22T05:44:05.065Z,1015.32
2017-03-22T05:44:31.272Z,1015.28
2017-03-22T05:44:56.851Z,1015.29
2017-03-22T05:45:23.256Z,1015.28
2017-03-22T05:45:48.830Z,1015.29
2017-03-22T05:47:50.899Z,1015.32
2017-03-22T05:48:16.546Z,1015.3
2017-03-22T05:48:42.190Z,1015.27
2017-03-22T05:49:07.753Z,1015.29
2017-03-22T05:49:33.477Z,1015.35
2017-03-22T05:49:59.157Z,1015.33
2017-03-22T05:50:25.325Z,1015.32
2017-03-22T05:50:50.403Z,1015.34
2017-03-22T05:51:15.972Z,1015.33
2017-03-22T05:52:34.944Z,1015.34
2017-03-22T05:53:00.739Z,1015.35
2017-03-22T05:53:26.382Z,1015.33
2017-03-22T05:53:51.936Z,1015.31
2017-03-22T05:54:17.768Z,1015.37
2017-03-22T05:54:43.456Z,1015.34
2017-03-22T05:56:29.377Z,1015.33
2017-03-22T05:56:55.018Z,1015.34
2017-03-22T05:57:20.680Z,1015.34
2017-03-22T05:57:46.349Z,1015.32
2017-03-22T05:58:11.913Z,1015.34
2017-03-22T05:58:37.566Z,1015.33
2017-03-22T05:59:03.157Z,1015.32
2017-03-22T06:01:04.783Z,1015.37
2017-03-22T06:01:30.415Z,1015.37
2017-03-22T06:01:55.999Z,1015.37
2017-03-22T06:02:21.572Z,1015.33
2017-03-22T06:02:47.402Z,1015.38
2017-03-22T06:03:12.977Z,1015.35
2017-03-22T06:03:38.578Z,1015.35
2017-03-22T06:04:04.783Z,1015.36
2017-03-22T06:04:30.408Z,1015.33
2017-03-22T06:04:56.572Z,1015.34
2017-03-22T06:05:22.159Z,1015.35
2017-03-22T06:05:48.646Z,1015.36
2017-03-22T06:06:13.882Z,1015.35
2017-03-22T06:06:39.483Z,1015.35
2017-03-22T06:07:05.718Z,1015.38
2017-03-22T06:07:32.140Z,1015.38
2017-03-22T06:07:57.428Z,1015.35
2017-03-22T06:08:23.064Z,1015.39
2017-03-22T06:08:48.697Z,1015.41
2017-03-22T06:09:15.497Z,1015.41
2017-03-22T06:09:41.100Z,1015.42
2017-03-22T06:10:06.823Z,1015.42
2017-03-22T06:10:32.461Z,1015.4
2017-03-22T06:10:58.028Z,1015.4
2017-03-22T06:11:23.963Z,1015.4
2017-03-22T06:11:49.711Z,1015.41
2017-03-22T06:12:15.850Z,1015.42
2017-03-22T06:12:41.578Z,1015.41
2017-03-22T06:13:07.568Z,1015.45
2017-03-22T06:13:33.167Z,1015.42
2017-03-22T06:13:58.733Z,1015.43
2017-03-22T06:14:25.922Z,1015.44
2017-03-22T06:14:51.538Z,1015.45
2017-03-22T06:15:17.119Z,1015.45
2017-03-22T06:15:42.750Z,1015.44
2017-03-22T06:16:08.319Z,1015.44
2017-03-22T06:16:34.119Z,1015.44
2017-03-22T06:16:59.800Z,1015.47
2017-03-22T06:18:19.163Z,1015.42
2017-03-22T06:18:44.806Z,1015.46
2017-03-22T06:19:10.373Z,1015.48
2017-03-22T06:19:35.911Z,1015.45
2017-03-22T06:20:01.488Z,1015.5
2017-03-22T06:20:27.043Z,1015.49
2017-03-22T06:20:52.600Z,1015.48
2017-03-22T06:21:18.149Z,1015.48
2017-03-22T06:21:43.731Z,1015.47
2017-03-22T06:22:09.287Z,1015.49
2017-03-22T06:22:34.897Z,1015.6
2017-03-22T06:23:00.457Z,1015.57
2017-03-22T06:23:26.045Z,1015.55
2017-03-22T06:23:51.609Z,1015.54
2017-03-22T06:24:17.287Z,1015.53
2017-03-22T06:24:42.914Z,1015.55
2017-03-22T06:25:08.586Z,1015.53
2017-03-22T06:25:34.198Z,1015.56
2017-03-22T06:25:59.817Z,1015.56
2017-03-22T06:26:25.361Z,1015.56
2017-03-22T06:26:51.029Z,1015.55
2017-03-22T06:27:16.591Z,1015.58
2017-03-22T06:27:42.175Z,1015.55
2017-03-22T06:28:07.738Z,1015.55
2017-03-22T06:28:33.399Z,1015.58
2017-03-22T06:28:58.960Z,1015.62
2017-03-22T06:29:24.530Z,1015.53
2017-03-22T06:29:50.251Z,1015.59
2017-03-22T06:30:15.790Z,1015.56
2017-03-22T06:30:41.360Z,1015.6
2017-03-22T06:31:07.834Z,1015.61
2017-03-22T06:31:33.396Z,1015.58
2017-03-22T06:31:58.940Z,1015.61
2017-03-22T06:32:24.547Z,1015.58
2017-03-22T06:32:50.237Z,1015.59
2017-03-22T06:33:15.782Z,1015.56
2017-03-22T06:33:41.331Z,1015.65
2017-03-22T06:34:06.962Z,1015.6
2017-03-22T06:34:32.562Z,1015.61
2017-03-22T06:34:58.160Z,1015.63
2017-03-22T06:35:24.651Z,1015.6
2017-03-22T06:35:50.840Z,1015.62
2017-03-22T06:36:16.466Z,1015.63
2017-03-22T06:36:42.023Z,1015.63
2017-03-22T06:37:07.576Z,1015.65
2017-03-22T06:37:33.183Z,1015.61
2017-03-22T06:37:58.751Z,1015.63
2017-03-22T06:38:24.293Z,1015.63
2017-03-22T06:38:49.860Z,1015.62
2017-03-22T06:39:15.478Z,1015.62
2017-03-22T06:39:41.046Z,1015.65
2017-03-22T06:40:06.606Z,1015.67
2017-03-22T06:40:32.163Z,1015.62
2017-03-22T06:40:57.761Z,1015.6
2017-03-22T06:41:23.333Z,1015.61
2017-03-22T06:41:48.867Z,1015.65
2017-03-22T06:42:14.494Z,1015.63
2017-03-22T06:42:40.040Z,1015.61
2017-03-22T06:43:06.432Z,1015.6
2017-03-22T06:43:32.873Z,1015.65
2017-03-22T06:43:58.493Z,1015.63
2017-03-22T06:44:24.068Z,1015.68
2017-03-22T06:44:49.630Z,1015.66
2017-03-22T06:45:15.851Z,1015.68
2017-03-22T06:45:40.825Z,1015.69
2017-03-22T06:46:06.380Z,1015.68
2017-03-22T06:46:31.958Z,1015.67
2017-03-22T06:46:57.527Z,1015.68
2017-03-22T06:47:23.839Z,1015.7
2017-03-22T06:47:49.442Z,1015.68
2017-03-22T06:48:15.001Z,1015.7
2017-03-22T06:48:40.617Z,1015.69
2017-03-22T06:49:06.852Z,1015.69
2017-03-22T06:49:31.706Z,1015.72
2017-03-22T06:49:57.279Z,1015.72
2017-03-22T06:50:22.839Z,1015.71
2017-03-22T06:50:48.397Z,1015.71
2017-03-22T06:51:13.963Z,1015.72
2017-03-22T06:51:39.550Z,1015.72
2017-03-22T06:52:05.162Z,1015.75
2017-03-22T06:52:30.693Z,1015.69
2017-03-22T06:52:56.247Z,1015.73
2017-03-22T06:53:21.839Z,1015.72
2017-03-22T06:53:47.426Z,1015.73
2017-03-22T06:54:12.997Z,1015.72
2017-03-22T06:54:38.611Z,1015.79
2017-03-22T06:55:04.180Z,1015.79
2017-03-22T06:55:30.708Z,1015.72
2017-03-22T06:55:56.304Z,1015.73
2017-03-22T06:56:21.862Z,1015.79
2017-03-22T06:56:47.534Z,1015.81
2017-03-22T06:57:13.083Z,1015.78
2017-03-22T06:57:38.648Z,1015.73
2017-03-22T06:58:04.300Z,1015.77
2017-03-22T06:58:29.879Z,1015.76
2017-03-22T06:58:55.586Z,1015.78
2017-03-22T06:59:21.227Z,1015.78
2017-03-22T06:59:46.793Z,1015.77
2017-03-22T07:00:12.380Z,1015.78
2017-03-22T07:01:26.138Z,1015.78
2017-03-22T07:01:51.691Z,1015.8
2017-03-22T07:02:17.226Z,1015.79
2017-03-22T07:02:42.786Z,1015.86
2017-03-22T07:03:08.488Z,1015.82
2017-03-22T07:03:34.030Z,1015.84
2017-03-22T07:04:00.253Z,1015.86
2017-03-22T07:04:25.154Z,1015.83
2017-03-22T07:04:50.785Z,1015.87
2017-03-22T07:05:16.330Z,1015.84
2017-03-22T07:05:41.875Z,1015.84
2017-03-22T07:06:07.437Z,1015.84
2017-03-22T07:06:32.994Z,1015.82
2017-03-22T07:06:58.576Z,1015.86
2017-03-22T07:07:24.143Z,1015.88
2017-03-22T07:07:49.678Z,1015.88
2017-03-22T07:08:15.279Z,1015.91
2017-03-22T07:08:40.955Z,1015.93
2017-03-22T07:09:06.541Z,1015.96
2017-03-22T07:09:32.122Z,1015.94
2017-03-22T07:09:57.869Z,1015.92
2017-03-22T07:10:23.695Z,1015.86
2017-03-22T07:10:49.255Z,1015.92
2017-03-22T07:11:15.782Z,1015.88
2017-03-22T07:11:41.342Z,1015.89
2017-03-22T07:12:06.895Z,1015.88
2017-03-22T07:12:32.615Z,1015.89
2017-03-22T07:12:58.404Z,1015.86
2017-03-22T07:13:24.062Z,1015.81
2017-03-22T07:13:49.647Z,1015.86
2017-03-22T07:14:15.210Z,1015.83
2017-03-22T07:14:40.805Z,1015.82
2017-03-22T07:15:06.343Z,1015.81
2017-03-22T07:15:31.929Z,1015.81
2017-03-22T07:15:57.486Z,1015.79
2017-03-22T07:16:23.251Z,1015.81
2017-03-22T07:16:48.809Z,1015.82
2017-03-22T07:17:14.358Z,1015.85
2017-03-22T07:17:40.050Z,1015.87
2017-03-22T07:18:05.591Z,1015.85
2017-03-22T07:18:31.149Z,1015.83
2017-03-22T07:18:56.728Z,1015.85
2017-03-22T07:19:22.271Z,1015.83
2017-03-22T07:19:48.660Z,1015.86
2017-03-22T07:20:14.226Z,1015.87
2017-03-22T07:20:39.793Z,1015.87
2017-03-22T07:21:05.356Z,1015.84
2017-03-22T07:21:30.899Z,1015.84
2017-03-22T07:21:56.460Z,1015.82
2017-03-22T07:22:22.021Z,1015.87
2017-03-22T07:22:47.589Z,1015.81
2017-03-22T07:23:13.142Z,1015.84
2017-03-22T07:23:38.676Z,1015.82
2017-03-22T07:24:04.275Z,1015.85
2017-03-22T07:24:29.819Z,1015.84
2017-03-22T07:24:55.418Z,1015.84
2017-03-22T07:25:20.996Z,1015.86
2017-03-22T07:25:46.556Z,1015.89
2017-03-22T07:26:12.177Z,1015.83
2017-03-22T07:26:37.915Z,1015.86
2017-03-22T07:27:03.481Z,1015.84
2017-03-22T07:27:29.099Z,1015.85
2017-03-22T07:27:54.757Z,1015.86
2017-03-22T07:28:20.318Z,1015.88
2017-03-22T07:28:45.889Z,1015.89
2017-03-22T07:29:11.452Z,1015.92
2017-03-22T07:29:37.124Z,1015.85
2017-03-22T07:30:03.266Z,1015.9
2017-03-22T07:30:28.425Z,1015.87
2017-03-22T07:30:54.004Z,1015.84
2017-03-22T07:31:19.537Z,1015.86
2017-03-22T07:31:45.089Z,1015.84
2017-03-22T07:32:10.671Z,1015.88
2017-03-22T07:32:36.231Z,1015.87
2017-03-22T07:33:01.809Z,1015.91
2017-03-22T07:33:27.373Z,1015.85
2017-03-22T07:33:52.949Z,1015.86
2017-03-22T07:34:18.488Z,1015.82
2017-03-22T07:34:44.111Z,1015.88
2017-03-22T07:35:09.675Z,1015.9
2017-03-22T07:35:35.251Z,1015.86
2017-03-22T07:36:00.818Z,1015.86
2017-03-22T07:36:26.503Z,1015.86
2017-03-22T07:36:53.075Z,1015.86
2017-03-22T07:37:18.633Z,1015.86
2017-03-22T07:37:44.192Z,1015.92
2017-03-22T07:38:09.733Z,1015.92
2017-03-22T07:38:35.268Z,1015.87
2017-03-22T07:39:06.978Z,1015.87
2017-03-22T07:39:32.552Z,1015.9
2017-03-22T07:39:58.185Z,1015.89
2017-03-22T07:40:24.335Z,1015.89
2017-03-22T07:40:49.913Z,1015.85
2017-03-22T07:41:16.151Z,1015.88
2017-03-22T07:41:41.708Z,1015.89
2017-03-22T07:42:07.259Z,1015.9
2017-03-22T07:42:33.510Z,1015.92
2017-03-22T07:42:59.094Z,1015.89
2017-03-22T07:43:25.288Z,1015.92
2017-03-22T07:43:50.928Z,1015.93
2017-03-22T07:44:17.057Z,1015.93
2017-03-22T07:44:43.193Z,1015.96
2017-03-22T07:45:08.742Z,1015.95
2017-03-22T07:45:34.425Z,1015.94
2017-03-22T07:45:59.981Z,1016
2017-03-22T07:46:26.226Z,1015.96
2017-03-22T07:46:51.790Z,1015.96
2017-03-22T07:47:17.370Z,1015.98
2017-03-22T07:47:44.271Z,1015.97
2017-03-22T07:48:09.190Z,1015.96
2017-03-22T07:48:35.406Z,1016
2017-03-22T07:49:01.131Z,1015.94
2017-03-22T07:49:27.208Z,1016
2017-03-22T07:49:52.791Z,1015.97
2017-03-22T07:50:18.344Z,1016.02
2017-03-22T07:50:44.618Z,1016
2017-03-22T07:51:10.200Z,1016.02
2017-03-22T07:51:36.431Z,1016.02
2017-03-22T07:52:02.000Z,1016.02
2017-03-22T07:52:27.634Z,1016.04
2017-03-22T07:52:53.783Z,1016.04
2017-03-22T07:53:19.346Z,1016.03
2017-03-22T07:53:45.703Z,1016.06
2017-03-22T07:54:11.273Z,1016.03
2017-03-22T07:54:37.315Z,1016.04
2017-03-22T07:55:02.973Z,1016.1
2017-03-22T07:55:28.551Z,1016.03
2017-03-22T07:55:54.735Z,1016.02
2017-03-22T07:56:20.289Z,1016.03
2017-03-22T07:56:46.563Z,1016.05
2017-03-22T07:57:12.145Z,1016.1
2017-03-22T07:57:38.357Z,1016.12
2017-03-22T07:58:04.157Z,1016.08
2017-03-22T07:58:29.726Z,1016.14
2017-03-22T07:58:55.617Z,1016.11
2017-03-22T07:59:21.188Z,1016.12
2017-03-22T07:59:47.421Z,1016.1
2017-03-22T08:00:12.954Z,1016.14
2017-03-22T08:00:38.544Z,1016.11
2017-03-22T08:01:04.802Z,1016.13
2017-03-22T08:01:30.352Z,1016.14
2017-03-22T08:01:56.591Z,1016.15
2017-03-22T08:02:22.183Z,1016.09
2017-03-22T08:02:47.762Z,1016.12
2017-03-22T08:03:14.439Z,1016.1
2017-03-22T08:03:39.993Z,1016.11
2017-03-22T08:04:05.746Z,1016.12
2017-03-22T08:04:31.316Z,1016.13
2017-03-22T08:04:57.477Z,1016.14
2017-03-22T08:05:23.026Z,1016.13
2017-03-22T08:05:48.668Z,1016.14
2017-03-22T08:06:14.873Z,1016.19
2017-03-22T08:06:40.453Z,1016.16
2017-03-22T08:07:06.708Z,1016.16
2017-03-22T08:07:32.279Z,1016.23
2017-03-22T08:07:57.849Z,1016.17
2017-03-22T08:08:24.160Z,1016.15
2017-03-22T08:08:49.804Z,1016.25
2017-03-22T08:09:16.586Z,1016.23
2017-03-22T08:09:42.157Z,1016.2
2017-03-22T08:10:07.778Z,1016.19
2017-03-22T08:10:33.392Z,1016.21
2017-03-22T08:10:58.988Z,1016.23
2017-03-22T08:11:25.079Z,1016.22
2017-03-22T08:11:50.645Z,1016.22
2017-03-22T08:12:16.765Z,1016.2
2017-03-22T08:12:42.301Z,1016.23
2017-03-22T08:13:08.742Z,1016.22
2017-03-22T08:13:34.289Z,1016.26
2017-03-22T08:13:59.866Z,1016.24
2017-03-22T08:14:25.933Z,1016.24
2017-03-22T08:14:52.006Z,1016.25
2017-03-22T08:15:17.643Z,1016.28
2017-03-22T08:15:43.217Z,1016.28
2017-03-22T08:16:08.927Z,1016.31
2017-03-22T08:16:35.019Z,1016.3
2017-03-22T08:17:00.596Z,1016.26
2017-03-22T08:17:26.977Z,1016.29
2017-03-22T08:17:52.560Z,1016.29
2017-03-22T08:18:18.110Z,1016.27
2017-03-22T08:18:44.180Z,1016.28
2017-03-22T08:19:09.796Z,1016.29
2017-03-22T08:19:35.976Z,1016.31
2017-03-22T08:20:02.285Z,1016.35
2017-03-22T08:20:27.952Z,1016.34
2017-03-22T08:20:53.503Z,1016.35
2017-03-22T08:21:19.054Z,1016.31
2017-03-22T08:21:45.640Z,1016.37
2017-03-22T08:22:11.249Z,1016.36
2017-03-22T08:22:36.923Z,1016.37
2017-03-22T08:23:02.549Z,1016.34
2017-03-22T08:23:28.205Z,1016.36
2017-03-22T08:23:54.231Z,1016.36
2017-03-22T08:24:19.802Z,1016.38
2017-03-22T08:24:46.044Z,1016.36
2017-03-22T08:25:11.629Z,1016.38
2017-03-22T08:25:37.847Z,1016.37
2017-03-22T08:26:03.404Z,1016.38
2017-03-22T08:26:28.955Z,1016.39
2017-03-22T08:26:55.198Z,1016.43
2017-03-22T08:27:20.795Z,1016.4
2017-03-22T08:27:46.984Z,1016.43
2017-03-22T08:28:12.547Z,1016.44
2017-03-22T08:28:38.129Z,1016.46
2017-03-22T08:29:04.598Z,1016.45
2017-03-22T08:29:30.155Z,1016.46
2017-03-22T08:29:56.124Z,1016.45
2017-03-22T08:30:21.696Z,1016.45
2017-03-22T08:30:47.921Z,1016.46
2017-03-22T08:31:13.464Z,1016.52
2017-03-22T08:31:39.036Z,1016.46
2017-03-22T08:32:05.262Z,1016.49
2017-03-22T08:32:30.826Z,1016.49
2017-03-22T08:32:57.075Z,1016.41
2017-03-22T08:33:23.254Z,1016.5
2017-03-22T08:33:48.825Z,1016.52
2017-03-22T08:34:14.397Z,1016.51
2017-03-22T08:34:39.965Z,1016.49
2017-03-22T08:35:06.357Z,1016.48
2017-03-22T08:35:31.976Z,1016.47
2017-03-22T08:35:57.988Z,1016.48
2017-03-22T08:36:23.570Z,1016.48
2017-03-22T08:36:49.142Z,1016.55
2017-03-22T08:37:15.364Z,1016.49
2017-03-22T08:38:19.409Z,1016.49
2017-03-22T08:38:45.255Z,1016.53
2017-03-22T08:39:10.819Z,1016.49
2017-03-22T08:39:36.380Z,1016.51
2017-03-22T08:40:01.940Z,1016.53
2017-03-22T08:40:27.495Z,1016.52
2017-03-22T08:40:53.049Z,1016.5
2017-03-22T08:41:18.669Z,1016.53
2017-03-22T08:41:44.285Z,1016.57
2017-03-22T08:42:09.848Z,1016.58
2017-03-22T08:42:35.445Z,1016.56
2017-03-22T08:43:01.158Z,1016.59
2017-03-22T08:43:26.707Z,1016.54
2017-03-22T08:43:52.269Z,1016.58
2017-03-22T08:44:17.830Z,1016.56
2017-03-22T08:44:43.401Z,1016.58
2017-03-22T08:45:08.947Z,1016.56
2017-03-22T08:45:34.598Z,1016.6
2017-03-22T08:46:00.305Z,1016.58
2017-03-22T08:46:25.858Z,1016.6
2017-03-22T08:46:51.526Z,1016.58
2017-03-22T08:47:17.103Z,1016.63
2017-03-22T08:47:42.703Z,1016.65
2017-03-22T08:48:08.247Z,1016.65
2017-03-22T08:48:33.808Z,1016.57
2017-03-22T08:48:59.394Z,1016.6
2017-03-22T08:49:24.946Z,1016.61
2017-03-22T08:49:50.490Z,1016.65
2017-03-22T08:50:16.039Z,1016.66
2017-03-22T08:50:41.649Z,1016.67
2017-03-22T08:51:07.209Z,1016.66
2017-03-22T08:51:32.761Z,1016.64
2017-03-22T08:51:59.036Z,1016.7
2017-03-22T08:52:23.884Z,1016.7
2017-03-22T08:52:49.481Z,1016.66
2017-03-22T08:53:15.025Z,1016.66
2017-03-22T08:53:40.592Z,1016.67
2017-03-22T08:54:06.171Z,1016.69
2017-03-22T08:54:31.879Z,1016.68
2017-03-22T08:54:57.511Z,1016.66
2017-03-22T08:55:23.105Z,1016.74
2017-03-22T08:55:48.650Z,1016.72
2017-03-22T08:56:14.354Z,1016.69
2017-03-22T08:56:39.828Z,1016.74
2017-03-22T08:57:05.400Z,1016.72
2017-03-22T08:57:30.974Z,1016.7
2017-03-22T08:57:56.638Z,1016.7
2017-03-22T08:58:22.194Z,1016.71
2017-03-22T08:58:48.536Z,1016.72
2017-03-22T08:59:13.447Z,1016.69
2017-03-22T08:59:38.994Z,1016.73
2017-03-22T09:00:04.583Z,1016.75
2017-03-22T09:00:30.187Z,1016.77
2017-03-22T09:00:55.749Z,1016.76
2017-03-22T09:01:21.286Z,1016.69
2017-03-22T09:01:46.837Z,1016.77
2017-03-22T09:02:12.378Z,1016.69
2017-03-22T09:02:37.950Z,1016.73
2017-03-22T09:03:03.539Z,1016.68
2017-03-22T09:03:29.111Z,1016.77
2017-03-22T09:03:54.718Z,1016.73
2017-03-22T09:04:20.516Z,1016.73
2017-03-22T09:04:46.081Z,1016.76
2017-03-22T09:05:11.690Z,1016.76
2017-03-22T09:05:37.262Z,1016.75
2017-03-22T09:06:02.845Z,1016.76
2017-03-22T09:06:28.430Z,1016.77
2017-03-22T09:06:54.088Z,1016.68
2017-03-22T09:07:19.671Z,1016.71
2017-03-22T09:07:45.236Z,1016.77
2017-03-22T09:08:10.795Z,1016.78
2017-03-22T09:08:36.407Z,1016.77
2017-03-22T09:09:01.947Z,1016.78
2017-03-22T09:09:27.549Z,1016.79
2017-03-22T09:09:53.160Z,1016.8
2017-03-22T09:10:18.710Z,1016.8
2017-03-22T09:10:44.289Z,1016.78
2017-03-22T09:11:09.877Z,1016.8
2017-03-22T09:11:35.427Z,1016.83
2017-03-22T09:12:01.021Z,1016.84
2017-03-22T09:12:26.625Z,1016.85
2017-03-22T09:12:52.207Z,1016.86
2017-03-22T09:13:17.826Z,1016.84
2017-03-22T09:13:43.384Z,1016.85
2017-03-22T09:14:08.947Z,1016.87
2017-03-22T09:14:34.556Z,1016.86
2017-03-22T09:15:00.288Z,1016.89
2017-03-22T09:15:25.838Z,1016.8
2017-03-22T09:15:51.386Z,1016.83
2017-03-22T09:16:17.025Z,1016.83
2017-03-22T09:16:42.588Z,1016.85
2017-03-22T09:17:08.153Z,1016.8
2017-03-22T09:17:33.742Z,1016.82
2017-03-22T09:17:59.324Z,1016.85
2017-03-22T09:18:24.902Z,1016.8
2017-03-22T09:18:50.467Z,1016.9
2017-03-22T09:19:16.037Z,1016.89
2017-03-22T09:19:41.706Z,1016.91
2017-03-22T09:20:07.294Z,1016.85
2017-03-22T09:20:32.844Z,1016.89
2017-03-22T09:20:58.422Z,1016.93
2017-03-22T09:21:23.997Z,1016.88
2017-03-22T09:21:49.555Z,1016.89
2017-03-22T09:22:15.143Z,1016.94
2017-03-22T09:22:40.689Z,1016.92
2017-03-22T09:23:06.249Z,1016.92
2017-03-22T09:23:31.819Z,1016.87
2017-03-22T09:23:57.420Z,1016.9
2017-03-22T09:24:22.997Z,1016.91
2017-03-22T09:24:48.549Z,1016.93
2017-03-22T09:25:14.203Z,1016.9
2017-03-22T09:25:39.737Z,1016.9
2017-03-22T09:26:05.300Z,1016.92
2017-03-22T09:26:30.862Z,1016.94
2017-03-22T09:26:56.397Z,1016.96
2017-03-22T09:27:21.994Z,1016.99